Portada
METAR-TAF:

METAR-TAF

Aeropuertos :

Aeropuerto de Roma-Urbe

Roma, Italia

latitud: 41-57N, longitud: 012-30E, altitud: 18 m

Observación

El informe se hizo hace 3 horas y 33 minutos, a las 15:50 UTC
Viento 5 kt del oeste-suroeste
Temperatura 17°C
Humedad 68%
Presión 1025 hPa
Visibilidad: 8000 m

METAR: LIRU 261550Z 25005KT 8000 NSC 17/11 Q1025

Hora: 20:23 (19:23 UTC)

Pronóstico

El informe se hizo hace 5 horas y 23 minutos, a las 14:00 UTC
Pronóstico válido del 26 a las 15 UTC al 26 a las 24 UTC
Viento 4 kt con dirección variable
Visibilidad 10 km o más
sin nubes por debajo de 1500 m y sin presencia de cumulonimbus.

TAF: LIRU 261400Z 2615/2624 VRB04KT CAVOK

Observaciones y pronósticos meteorológicos de más de 4000 aeropuertos (mensajes METAR y TAF).

Los puntos amarillos y rojos representan las estaciones disponibles.

Ponga el ratón en el punto deseado para ver el nombre de la estación.

Haga clic para ver las observaciones y los pronósticos meteorológicos.

Para cambiar el mapa : haga clic en los botones verdes con una cruz de color negro para hacer un zoom, en el botón verde con un guión para alejar o en las flechas verdes para mapas adyacentes.


METAR-TAF: